createdAt,value
2019-05-03T00:01:52.729Z,9.80
2019-05-03T00:04:44.596Z,8.40
2019-05-03T00:07:35.099Z,8.50
2019-05-03T00:10:24.833Z,7.63
2019-05-03T00:13:14.841Z,8.00
2019-05-03T00:16:12.214Z,7.40
2019-05-03T00:19:03.372Z,7.23
2019-05-03T00:21:53.438Z,7.90
2019-05-03T00:24:43.396Z,7.80
2019-05-03T00:27:33.172Z,7.60
2019-05-03T00:30:23.192Z,7.57
2019-05-03T00:33:13.141Z,7.13
2019-05-03T00:36:25.530Z,6.30
2019-05-03T00:39:38.300Z,7.60
2019-05-03T00:42:28.400Z,6.97
2019-05-03T00:45:18.829Z,7.40
2019-05-03T00:48:08.653Z,6.47
2019-05-03T00:50:58.607Z,6.30
2019-05-03T00:53:48.744Z,6.67
2019-05-03T00:56:38.573Z,6.70
2019-05-03T00:59:28.471Z,6.13
2019-05-03T01:02:19.384Z,5.27
2019-05-03T01:05:11.813Z,4.97
2019-05-03T01:08:02.102Z,4.30
2019-05-03T01:10:51.993Z,5.33
2019-05-03T01:13:42.414Z,4.93
2019-05-03T01:16:32.574Z,4.70
2019-05-03T01:19:22.865Z,4.33
2019-05-03T01:22:13.881Z,4.20
2019-05-03T01:25:05.338Z,4.30
2019-05-03T01:27:55.488Z,4.60
2019-05-03T01:30:46.171Z,4.30
2019-05-03T01:33:36.121Z,3.90
2019-05-03T01:36:26.658Z,4.00
2019-05-03T01:39:16.553Z,4.57
2019-05-03T01:42:06.849Z,4.47
2019-05-03T01:44:57.066Z,4.33
2019-05-03T01:48:05.742Z,5.97
2019-05-03T01:51:12.596Z,6.00
2019-05-03T01:54:02.097Z,5.43
2019-05-03T01:56:58.817Z,4.97
2019-05-03T01:59:45.379Z,5.17
2019-05-03T02:02:53.301Z,5.33
2019-05-03T02:05:44.767Z,5.20
2019-05-03T02:08:34.671Z,5.60
2019-05-03T02:11:25.280Z,5.17
2019-05-03T02:14:15.234Z,5.30
2019-05-03T02:17:05.351Z,5.90
2019-05-03T02:19:55.319Z,5.50
2019-05-03T02:22:45.378Z,5.20
2019-05-03T02:25:35.745Z,4.60
2019-05-03T02:28:27.163Z,5.47
2019-05-03T02:31:17.372Z,4.73
2019-05-03T02:34:07.229Z,5.27
2019-05-03T02:36:58.532Z,3.97
2019-05-03T02:39:55.957Z,4.60
2019-05-03T02:43:06.311Z,4.60
2019-05-03T02:46:09.857Z,3.50
2019-05-03T02:49:06.553Z,4.60
2019-05-03T02:51:56.847Z,4.70
2019-05-03T02:54:46.891Z,3.83
2019-05-03T02:57:37.122Z,4.00
2019-05-03T03:00:58.277Z,4.77
2019-05-03T03:03:48.552Z,4.00
2019-05-03T03:06:42.097Z,3.70
2019-05-03T03:09:32.113Z,4.60
2019-05-03T03:12:25.747Z,4.10
2019-05-03T03:15:17.183Z,4.90
2019-05-03T03:18:09.998Z,3.83
2019-05-03T03:21:01.665Z,4.60
2019-05-03T03:24:08.129Z,3.90
2019-05-03T03:27:01.643Z,4.50
2019-05-03T03:30:02.147Z,3.97
2019-05-03T03:32:51.617Z,4.07
2019-05-03T03:35:48.398Z,3.40
2019-05-03T03:38:36.004Z,4.97
2019-05-03T03:41:27.204Z,3.73
2019-05-03T03:44:20.220Z,4.40
2019-05-03T03:47:16.551Z,4.07
2019-05-03T03:50:06.895Z,4.40
2019-05-03T03:53:00.825Z,5.20
2019-05-03T03:55:52.601Z,3.93
2019-05-03T03:58:46.176Z,3.90
2019-05-03T04:01:35.153Z,4.13
2019-05-03T04:04:26.237Z,4.50
2019-05-03T04:07:16.708Z,4.20
2019-05-03T04:10:09.786Z,4.50
2019-05-03T04:13:00.458Z,4.37
2019-05-03T04:15:57.949Z,5.07
2019-05-03T04:18:56.774Z,5.57
2019-05-03T04:21:47.043Z,5.20
2019-05-03T04:24:37.314Z,4.53
2019-05-03T04:27:29.082Z,5.10
2019-05-03T04:30:19.265Z,5.10
2019-05-03T04:33:08.938Z,5.37
2019-05-03T04:35:58.991Z,5.90
2019-05-03T04:38:49.067Z,5.10
2019-05-03T04:41:39.394Z,6.43
2019-05-03T04:44:29.644Z,5.67
2019-05-03T04:47:19.754Z,7.43
2019-05-03T04:50:10.350Z,4.90
2019-05-03T04:53:00.583Z,3.60
2019-05-03T04:55:50.172Z,4.03
2019-05-03T04:58:40.195Z,3.43
2019-05-03T05:01:30.038Z,3.17
2019-05-03T05:04:20.018Z,2.60
2019-05-03T05:07:10.164Z,2.40
2019-05-03T05:10:00.219Z,3.33
2019-05-03T05:12:50.222Z,2.47
2019-05-03T05:15:40.211Z,2.57
2019-05-03T05:18:35.670Z,2.30
2019-05-03T05:21:29.661Z,2.50
2019-05-03T05:24:19.827Z,2.20
2019-05-03T05:27:16.020Z,2.17
2019-05-03T05:30:08.633Z,2.67
2019-05-03T05:32:59.333Z,2.70
2019-05-03T05:35:50.155Z,3.90
2019-05-03T05:38:40.281Z,2.30
2019-05-03T05:41:30.335Z,2.33
2019-05-03T05:44:20.111Z,2.40
2019-05-03T05:47:28.136Z,2.13
2019-05-03T05:50:22.819Z,2.33
2019-05-03T05:53:12.552Z,2.30
2019-05-03T05:56:24.952Z,2.40
2019-05-03T05:59:36.847Z,2.83
2019-05-03T06:02:26.074Z,4.10
2019-05-03T06:05:15.771Z,4.13
2019-05-03T06:08:31.057Z,2.60
2019-05-03T06:11:38.741Z,2.83
2019-05-03T06:14:34.656Z,2.13
2019-05-03T06:17:34.959Z,2.43
2019-05-03T06:20:35.161Z,2.70
2019-05-03T06:23:32.322Z,2.10
2019-05-03T06:26:39.740Z,1.90
2019-05-03T06:29:29.406Z,2.57
2019-05-03T06:32:27.233Z,2.53
2019-05-03T06:35:17.057Z,3.10
2019-05-03T06:38:07.025Z,2.10
2019-05-03T06:40:57.059Z,3.07
2019-05-03T06:43:48.773Z,2.40
2019-05-03T06:46:46.141Z,2.87
2019-05-03T06:49:39.242Z,2.93
2019-05-03T06:52:29.440Z,2.70
2019-05-03T06:55:19.383Z,2.87
2019-05-03T06:58:08.928Z,3.40
2019-05-03T07:01:20.615Z,2.70
2019-05-03T07:04:18.393Z,2.50
2019-05-03T07:07:28.150Z,2.40
2019-05-03T07:10:40.191Z,2.10
2019-05-03T07:13:30.228Z,2.60
2019-05-03T07:16:20.048Z,2.90
2019-05-03T07:19:09.926Z,2.77
2019-05-03T07:22:00.014Z,2.30
2019-05-03T07:24:49.828Z,2.37
2019-05-03T07:27:39.632Z,2.53
2019-05-03T07:30:29.472Z,2.53
2019-05-03T07:33:28.128Z,4.40
2019-05-03T07:36:18.354Z,3.10
2019-05-03T07:39:09.360Z,2.33
2019-05-03T07:41:59.486Z,2.67
2019-05-03T07:44:49.355Z,4.00
2019-05-03T07:47:39.320Z,3.03
2019-05-03T07:50:29.268Z,3.07
2019-05-03T07:53:20.577Z,3.87
2019-05-03T07:56:15.560Z,3.23
2019-05-03T07:59:06.986Z,3.60
2019-05-03T08:01:58.607Z,4.10
2019-05-03T08:04:48.370Z,3.07
2019-05-03T08:07:38.240Z,3.50
2019-05-03T08:10:27.810Z,3.60
2019-05-03T08:13:17.616Z,6.73
2019-05-03T08:16:07.603Z,2.47
2019-05-03T08:18:57.721Z,3.07
2019-05-03T08:21:47.987Z,2.87
2019-05-03T08:24:37.753Z,2.43
2019-05-03T08:27:27.346Z,2.30
2019-05-03T08:30:22.657Z,2.20
2019-05-03T08:33:24.965Z,5.20
2019-05-03T08:36:15.689Z,2.70
2019-05-03T08:39:06.659Z,1.90
2019-05-03T08:41:59.316Z,1.93
2019-05-03T08:44:49.498Z,2.17
2019-05-03T08:47:39.441Z,2.13
2019-05-03T08:50:29.822Z,1.60
2019-05-03T08:53:20.078Z,3.93
2019-05-03T08:56:09.757Z,2.60
2019-05-03T08:58:59.575Z,2.00
2019-05-03T09:01:49.736Z,1.80
2019-05-03T09:04:43.062Z,1.87
2019-05-03T09:07:31.497Z,1.70
2019-05-03T09:10:29.689Z,1.40
2019-05-03T09:13:20.567Z,1.60
2019-05-03T09:16:10.363Z,1.70
2019-05-03T09:19:00.307Z,1.80
2019-05-03T09:21:50.241Z,1.50
2019-05-03T09:24:40.291Z,7.90
2019-05-03T09:27:30.235Z,1.80
2019-05-03T09:30:20.925Z,1.67
2019-05-03T09:33:10.957Z,1.87
2019-05-03T09:36:00.508Z,1.90
2019-05-03T09:38:50.333Z,1.87
2019-05-03T09:41:40.287Z,2.43
2019-05-03T09:44:30.055Z,1.90
2019-05-03T09:47:19.721Z,1.50
2019-05-03T09:50:09.479Z,1.50
2019-05-03T09:52:59.630Z,1.80
2019-05-03T09:55:49.352Z,1.67
2019-05-03T09:58:39.045Z,1.97
2019-05-03T10:01:29.437Z,2.07
2019-05-03T10:04:19.147Z,1.20
2019-05-03T10:07:09.017Z,1.70
2019-05-03T10:09:59.530Z,1.30
2019-05-03T10:12:49.354Z,1.60
2019-05-03T10:15:41.385Z,0.90
2019-05-03T10:18:32.221Z,1.20
2019-05-03T10:21:25.801Z,1.33
2019-05-03T10:24:15.400Z,2.10
2019-05-03T10:27:05.776Z,1.70
2019-05-03T10:30:09.540Z,4.13
2019-05-03T10:32:51.941Z,7.07
2019-05-03T10:35:41.963Z,1.43
2019-05-03T10:38:32.038Z,1.47
2019-05-03T10:41:22.146Z,1.03
2019-05-03T10:44:11.834Z,0.97
2019-05-03T10:47:02.015Z,1.37
2019-05-03T10:49:52.113Z,1.13
2019-05-03T10:52:47.637Z,1.20
2019-05-03T10:55:37.381Z,1.57
2019-05-03T10:58:27.050Z,1.20
2019-05-03T11:01:18.444Z,1.23
2019-05-03T11:04:08.572Z,1.20
2019-05-03T11:06:58.395Z,1.10
2019-05-03T11:09:52.379Z,1.60
2019-05-03T11:12:40.553Z,1.40
2019-05-03T11:15:30.855Z,1.47
2019-05-03T11:18:20.796Z,3.27
2019-05-03T11:21:10.307Z,1.30
2019-05-03T11:24:00.162Z,1.10
2019-05-03T11:26:52.076Z,1.47
2019-05-03T11:29:41.937Z,1.40
2019-05-03T11:32:44.760Z,1.27
2019-05-03T11:36:04.318Z,1.40
2019-05-03T11:38:55.842Z,1.20
2019-05-03T11:41:48.971Z,1.40
2019-05-03T11:44:41.025Z,1.07
2019-05-03T11:47:30.864Z,3.37
2019-05-03T11:50:20.915Z,1.47
2019-05-03T11:53:10.359Z,1.40
2019-05-03T11:56:00.457Z,0.87
2019-05-03T11:58:50.597Z,1.20
2019-05-03T12:01:51.711Z,1.17
2019-05-03T12:04:40.831Z,1.13
2019-05-03T12:07:39.896Z,1.40
2019-05-03T12:10:36.512Z,1.20
2019-05-03T12:13:22.160Z,1.10
2019-05-03T12:16:20.627Z,1.07
2019-05-03T12:19:16.512Z,1.53
2019-05-03T12:21:57.623Z,1.43
2019-05-03T12:24:48.586Z,1.60
2019-05-03T12:27:38.883Z,1.20
2019-05-03T12:30:28.883Z,1.67
2019-05-03T12:33:18.838Z,1.10
2019-05-03T12:36:09.050Z,2.70
2019-05-03T12:38:58.710Z,1.27
2019-05-03T12:41:48.289Z,1.30
2019-05-03T12:44:38.263Z,1.30
2019-05-03T12:47:27.977Z,1.37
2019-05-03T12:50:18.204Z,1.23
2019-05-03T12:53:08.243Z,1.30
2019-05-03T12:55:58.418Z,1.23
2019-05-03T12:59:02.781Z,1.23
2019-05-03T13:02:07.574Z,1.87
2019-05-03T13:04:57.299Z,1.40
2019-05-03T13:08:01.941Z,1.50
2019-05-03T13:10:51.847Z,1.93
2019-05-03T13:13:42.035Z,1.40
2019-05-03T13:16:32.142Z,1.70
2019-05-03T13:19:22.242Z,1.87
2019-05-03T13:22:12.111Z,2.47
2019-05-03T13:25:02.283Z,1.20
2019-05-03T13:27:54.659Z,1.50
2019-05-03T13:30:45.254Z,1.37
2019-05-03T13:33:35.758Z,1.40
2019-05-03T13:36:25.732Z,1.30
2019-05-03T13:39:16.008Z,0.97
2019-05-03T13:42:06.295Z,1.30
2019-05-03T13:44:56.624Z,1.60
2019-05-03T13:47:46.828Z,0.97
2019-05-03T13:50:36.901Z,1.47
2019-05-03T13:53:27.146Z,1.50
2019-05-03T13:56:17.461Z,2.80
2019-05-03T13:59:18.552Z,2.40
2019-05-03T14:02:12.448Z,2.57
2019-05-03T14:04:52.954Z,2.03
2019-05-03T14:07:44.706Z,1.50
2019-05-03T14:10:35.960Z,1.30
2019-05-03T14:13:25.715Z,1.30
2019-05-03T14:16:16.118Z,1.53
2019-05-03T14:19:14.572Z,1.43
2019-05-03T14:22:07.676Z,1.30
2019-05-03T14:24:57.798Z,1.13
2019-05-03T14:27:47.815Z,1.00
2019-05-03T14:30:37.582Z,1.60
2019-05-03T14:33:28.411Z,1.37
2019-05-03T14:36:18.606Z,1.50
2019-05-03T14:39:10.542Z,1.37
2019-05-03T14:41:59.950Z,1.57
2019-05-03T14:44:49.755Z,1.10
2019-05-03T14:47:39.236Z,1.37
2019-05-03T14:50:29.194Z,2.00
2019-05-03T14:53:18.577Z,1.20
2019-05-03T14:56:18.501Z,1.20
2019-05-03T14:59:45.795Z,1.40
2019-05-03T15:02:58.059Z,1.20
2019-05-03T15:05:47.898Z,1.53
2019-05-03T15:08:37.777Z,1.90
2019-05-03T15:11:28.108Z,1.30
2019-05-03T15:14:17.944Z,1.00
2019-05-03T15:17:08.064Z,1.50
2019-05-03T15:19:58.355Z,1.20
2019-05-03T15:22:48.428Z,3.90
2019-05-03T15:25:38.112Z,1.50
2019-05-03T15:28:29.528Z,1.03
2019-05-03T15:31:18.639Z,1.50
2019-05-03T15:34:08.721Z,1.10
2019-05-03T15:36:58.686Z,1.17
2019-05-03T15:39:48.291Z,2.10
2019-05-03T15:42:40.405Z,1.50
2019-05-03T15:45:40.718Z,2.70
2019-05-03T15:48:35.133Z,1.10
2019-05-03T15:51:25.132Z,1.60
2019-05-03T15:54:15.428Z,1.47
2019-05-03T15:57:05.322Z,1.20
2019-05-03T15:59:55.569Z,1.20
2019-05-03T16:02:45.692Z,1.20
2019-05-03T16:05:35.745Z,1.40
2019-05-03T16:08:26.965Z,1.50
2019-05-03T16:11:17.133Z,1.17
2019-05-03T16:14:07.424Z,1.50
2019-05-03T16:16:57.511Z,1.53
2019-05-03T16:19:47.714Z,1.10
2019-05-03T16:22:38.253Z,1.00
2019-05-03T16:25:28.178Z,1.20
2019-05-03T16:28:27.410Z,1.20
2019-05-03T16:31:20.196Z,1.50
2019-05-03T16:34:09.544Z,1.37
2019-05-03T16:37:00.513Z,1.60
2019-05-03T16:39:50.413Z,1.20
2019-05-03T16:42:40.653Z,1.20
2019-05-03T16:45:30.704Z,1.57
2019-05-03T16:48:20.805Z,1.07
2019-05-03T16:51:10.992Z,1.30
2019-05-03T16:54:01.328Z,3.00
2019-05-03T16:56:51.317Z,1.20
2019-05-03T16:59:41.423Z,1.57
2019-05-03T17:02:31.256Z,1.40
2019-05-03T17:05:46.034Z,1.07
2019-05-03T17:08:56.785Z,1.00
2019-05-03T17:11:58.428Z,1.30
2019-05-03T17:14:54.359Z,1.59
2019-05-03T17:17:45.242Z,1.47
2019-05-03T17:20:35.077Z,1.60
2019-05-03T17:23:24.649Z,1.43
2019-05-03T17:26:14.966Z,1.93
2019-05-03T17:29:05.783Z,2.13
2019-05-03T17:31:55.825Z,1.50
2019-05-03T17:34:45.471Z,1.47
2019-05-03T17:37:36.516Z,1.80
2019-05-03T17:40:35.131Z,1.77
2019-05-03T17:43:28.882Z,1.43
2019-05-03T17:46:18.715Z,1.30
2019-05-03T17:49:08.950Z,1.20
2019-05-03T17:52:20.303Z,1.30
2019-05-03T17:55:28.887Z,1.13
2019-05-03T17:58:37.523Z,1.20
2019-05-03T18:01:45.670Z,1.00
2019-05-03T18:05:09.757Z,1.70
2019-05-03T18:08:17.843Z,1.80
2019-05-03T18:11:14.780Z,1.87
2019-05-03T18:14:05.566Z,1.43
2019-05-03T18:16:55.831Z,1.53
2019-05-03T18:19:47.857Z,1.60
2019-05-03T18:22:37.842Z,1.60
2019-05-03T18:25:27.644Z,1.40
2019-05-03T18:28:18.108Z,1.23
2019-05-03T18:31:08.837Z,2.10
2019-05-03T18:33:58.565Z,1.83
2019-05-03T18:36:48.947Z,1.53
2019-05-03T18:39:38.884Z,5.43
2019-05-03T18:42:35.252Z,2.70
2019-05-03T18:45:36.866Z,3.00
2019-05-03T18:48:26.830Z,2.33
2019-05-03T18:51:16.649Z,2.27
2019-05-03T18:54:07.306Z,1.70
2019-05-03T18:56:58.027Z,1.90
2019-05-03T18:59:48.095Z,1.87
2019-05-03T19:02:37.731Z,1.60
2019-05-03T19:05:28.645Z,1.60
2019-05-03T19:08:35.110Z,1.90
2019-05-03T19:11:46.729Z,1.40
2019-05-03T19:14:36.336Z,1.70
2019-05-03T19:17:44.309Z,1.70
2019-05-03T19:20:35.257Z,1.80
2019-05-03T19:23:25.049Z,2.10
2019-05-03T19:26:14.609Z,2.10
2019-05-03T19:29:04.718Z,2.03
2019-05-03T19:31:55.303Z,2.00
2019-05-03T19:34:51.044Z,1.70
2019-05-03T19:37:37.029Z,1.57
2019-05-03T19:40:27.706Z,1.47
2019-05-03T19:43:17.867Z,1.97
2019-05-03T19:46:07.646Z,1.67
2019-05-03T19:48:58.850Z,1.87
2019-05-03T19:51:48.489Z,1.97
2019-05-03T19:54:37.678Z,8.33
2019-05-03T19:57:32.450Z,2.73
2019-05-03T20:00:25.552Z,1.57
2019-05-03T20:03:19.703Z,2.00
2019-05-03T20:06:31.584Z,1.50
2019-05-03T20:09:24.434Z,1.87
2019-05-03T20:12:15.220Z,1.90
2019-05-03T20:15:06.833Z,1.90
2019-05-03T20:18:00.187Z,3.90
2019-05-03T20:20:48.738Z,2.23
2019-05-03T20:23:38.900Z,1.93
2019-05-03T20:26:28.720Z,2.23
2019-05-03T20:29:18.415Z,1.70
2019-05-03T20:32:08.199Z,1.83
2019-05-03T20:35:10.557Z,1.57
2019-05-03T20:37:49.507Z,2.30
2019-05-03T20:40:39.541Z,2.33
2019-05-03T20:43:39.038Z,2.10
2019-05-03T20:46:46.890Z,1.90
2019-05-03T20:49:36.829Z,2.20
2019-05-03T20:52:26.797Z,2.13
2019-05-03T20:55:16.680Z,1.90
2019-05-03T20:58:08.391Z,2.33
2019-05-03T21:00:57.715Z,2.83
2019-05-03T21:03:47.848Z,2.50
2019-05-03T21:06:38.134Z,3.27
2019-05-03T21:09:27.957Z,2.97
2019-05-03T21:12:17.379Z,2.60
2019-05-03T21:15:10.214Z,2.40
2019-05-03T21:18:16.905Z,2.83
2019-05-03T21:21:11.726Z,3.90
2019-05-03T21:24:07.177Z,2.80
2019-05-03T21:26:57.484Z,2.60
2019-05-03T21:29:55.119Z,2.40
2019-05-03T21:32:45.012Z,2.13
2019-05-03T21:35:41.441Z,3.23
2019-05-03T21:38:26.762Z,2.10
2019-05-03T21:41:16.752Z,2.37
2019-05-03T21:44:06.817Z,2.27
2019-05-03T21:46:56.853Z,2.30
2019-05-03T21:49:46.988Z,2.03
2019-05-03T21:52:37.018Z,1.93
2019-05-03T21:55:26.898Z,2.70
2019-05-03T21:58:16.793Z,2.10
2019-05-03T22:01:09.173Z,2.03
2019-05-03T22:03:58.639Z,2.10
2019-05-03T22:06:48.875Z,1.97
2019-05-03T22:09:39.114Z,1.83
2019-05-03T22:12:28.803Z,2.30
2019-05-03T22:15:42.980Z,2.13
2019-05-03T22:18:34.961Z,2.43
2019-05-03T22:21:30.206Z,3.27
2019-05-03T22:24:32.237Z,2.87
2019-05-03T22:27:24.515Z,3.37
2019-05-03T22:30:14.586Z,2.73
2019-05-03T22:33:05.246Z,3.10
2019-05-03T22:36:07.866Z,2.93
2019-05-03T22:38:47.340Z,2.87
2019-05-03T22:41:36.962Z,2.70
2019-05-03T22:44:26.807Z,2.83
2019-05-03T22:47:16.711Z,2.50
2019-05-03T22:50:06.310Z,2.93
2019-05-03T22:52:56.032Z,2.10
2019-05-03T22:55:46.103Z,3.30
2019-05-03T22:58:36.229Z,2.63
2019-05-03T23:01:26.211Z,2.43
2019-05-03T23:04:16.160Z,2.80
2019-05-03T23:07:06.206Z,2.30
2019-05-03T23:09:56.224Z,2.80
2019-05-03T23:12:46.420Z,2.87
2019-05-03T23:15:36.312Z,3.50
2019-05-03T23:18:26.768Z,2.43
2019-05-03T23:21:20.875Z,3.10
2019-05-03T23:24:11.138Z,2.87
2019-05-03T23:27:00.821Z,2.60
2019-05-03T23:29:50.777Z,3.20
2019-05-03T23:32:40.816Z,2.70
2019-05-03T23:35:30.614Z,2.40
2019-05-03T23:38:20.660Z,3.03
2019-05-03T23:41:11.436Z,2.90
2019-05-03T23:44:01.250Z,3.10
2019-05-03T23:47:14.582Z,2.70
2019-05-03T23:50:06.468Z,2.60
2019-05-03T23:52:56.366Z,2.73
2019-05-03T23:55:50.411Z,2.87
2019-05-03T23:58:40.148Z,2.90
